createdAt,value
2018-06-11T00:00:15.492Z,16.40
2018-06-11T00:05:17.658Z,15.70
2018-06-11T00:10:21.106Z,14.30
2018-06-11T00:15:23.383Z,14.37
2018-06-11T00:20:25.554Z,15.43
2018-06-11T00:25:27.850Z,14.60
2018-06-11T00:30:30.016Z,13.70
2018-06-11T00:35:32.156Z,13.57
2018-06-11T00:40:34.315Z,13.97
2018-06-11T00:45:36.469Z,14.10
2018-06-11T00:50:38.634Z,14.77
2018-06-11T00:55:52.379Z,13.70
2018-06-11T01:00:54.524Z,14.47
2018-06-11T01:05:56.665Z,13.97
2018-06-11T01:10:58.809Z,14.43
2018-06-11T01:16:01.132Z,13.93
2018-06-11T01:21:03.310Z,14.30
2018-06-11T01:26:05.459Z,13.70
2018-06-11T01:31:07.604Z,13.70
2018-06-11T01:36:09.806Z,13.17
2018-06-11T01:41:11.946Z,14.30
2018-06-11T01:46:14.086Z,15.30
2018-06-11T01:51:16.238Z,14.67
2018-06-11T01:56:18.397Z,14.10
2018-06-11T02:01:20.531Z,15.13
2018-06-11T02:06:22.694Z,16.33
2018-06-11T02:11:24.865Z,14.70
2018-06-11T02:16:27.084Z,14.10
2018-06-11T02:21:29.695Z,14.53
2018-06-11T02:26:32.095Z,14.87
2018-06-11T02:31:34.254Z,14.77
2018-06-11T02:36:36.451Z,14.57
2018-06-11T02:41:38.620Z,14.13
2018-06-11T02:46:40.779Z,14.00
2018-06-11T02:51:42.917Z,15.17
2018-06-11T02:56:45.073Z,16.33
2018-06-11T03:01:47.209Z,14.67
2018-06-11T03:06:49.378Z,14.70
2018-06-11T03:11:51.531Z,14.47
2018-06-11T03:16:53.713Z,14.23
2018-06-11T03:21:55.882Z,14.40
2018-06-11T03:26:58.418Z,14.77
2018-06-11T03:32:00.978Z,15.83
2018-06-11T03:37:03.122Z,16.30
2018-06-11T03:42:05.734Z,14.90
2018-06-11T03:47:07.882Z,15.53
2018-06-11T03:52:10.042Z,15.10
2018-06-11T03:57:12.210Z,14.40
2018-06-11T04:02:14.342Z,15.33
2018-06-11T04:07:16.493Z,15.07
2018-06-11T04:12:18.634Z,16.70
2018-06-11T04:17:20.782Z,15.87
2018-06-11T04:22:22.924Z,15.77
2018-06-11T04:27:25.064Z,15.80
2018-06-11T04:32:27.219Z,16.00
2018-06-11T04:37:29.376Z,15.47
2018-06-11T04:42:31.533Z,14.53
2018-06-11T04:47:33.691Z,15.00
2018-06-11T04:52:35.864Z,15.23
2018-06-11T04:57:38.810Z,14.57
2018-06-11T05:02:41.003Z,14.83
2018-06-11T05:07:43.191Z,14.47
2018-06-11T05:12:45.373Z,15.03
2018-06-11T05:17:47.548Z,13.73
2018-06-11T05:22:49.717Z,13.20
2018-06-11T05:27:51.887Z,12.93
2018-06-11T05:32:54.065Z,13.83
2018-06-11T05:37:56.229Z,13.97
2018-06-11T05:42:58.386Z,13.93
2018-06-11T05:48:01.069Z,14.07
2018-06-11T05:53:03.193Z,13.30
2018-06-11T05:58:05.361Z,13.27
2018-06-11T06:03:07.541Z,13.00
2018-06-11T06:08:09.696Z,12.40
2018-06-11T06:13:11.866Z,14.10
2018-06-11T06:18:14.054Z,14.43
2018-06-11T06:23:16.237Z,13.57
2018-06-11T06:28:18.386Z,14.60
2018-06-11T06:33:20.595Z,12.70
2018-06-11T06:38:22.746Z,13.63
2018-06-11T06:43:24.913Z,13.50
2018-06-11T06:48:27.065Z,13.40
2018-06-11T06:53:29.264Z,13.90
2018-06-11T06:58:31.459Z,12.10
2018-06-11T07:03:33.658Z,12.70
2018-06-11T07:08:35.810Z,12.60
2018-06-11T07:13:37.973Z,12.87
2018-06-11T07:18:40.109Z,12.17
2018-06-11T07:23:42.269Z,12.20
2018-06-11T07:28:44.476Z,12.47
2018-06-11T07:33:46.626Z,13.17
2018-06-11T07:38:48.764Z,12.57
2018-06-11T07:43:50.917Z,13.40
2018-06-11T07:48:53.037Z,13.37
2018-06-11T07:53:55.182Z,13.57
2018-06-11T07:58:57.314Z,13.57
2018-06-11T08:03:59.586Z,13.90
2018-06-11T08:09:01.797Z,14.50
2018-06-11T08:14:03.934Z,13.97
2018-06-11T08:19:06.075Z,14.57
2018-06-11T08:24:08.208Z,14.23
2018-06-11T08:29:10.341Z,15.10
2018-06-11T08:34:12.480Z,15.30
2018-06-11T08:39:14.659Z,14.90
2018-06-11T08:44:16.843Z,14.33
2018-06-11T08:49:18.977Z,13.40
2018-06-11T08:54:21.174Z,13.90
2018-06-11T08:59:23.349Z,13.67
2018-06-11T09:04:25.492Z,15.03
2018-06-11T09:09:27.641Z,13.70
2018-06-11T09:14:29.803Z,13.50
2018-06-11T09:19:31.957Z,14.50
2018-06-11T09:24:34.106Z,14.03
2018-06-11T09:29:36.242Z,13.67
2018-06-11T09:34:38.386Z,13.40
2018-06-11T09:39:40.532Z,14.07
2018-06-11T09:44:42.697Z,13.63
2018-06-11T09:49:44.875Z,12.67
2018-06-11T09:54:47.021Z,13.40
2018-06-11T09:59:49.181Z,12.97
2018-06-11T10:04:51.330Z,12.50
2018-06-11T10:09:53.491Z,12.33
2018-06-11T10:14:55.625Z,12.20
2018-06-11T10:19:57.763Z,11.77
2018-06-11T10:24:59.915Z,11.37
2018-06-11T10:30:02.104Z,12.03
2018-06-11T10:35:04.318Z,11.60
2018-06-11T10:40:06.510Z,11.50
2018-06-11T10:45:08.693Z,11.30
2018-06-11T10:50:10.866Z,11.73
2018-06-11T10:55:13.030Z,12.00
2018-06-11T11:00:15.220Z,11.87
2018-06-11T11:05:17.406Z,11.37
2018-06-11T11:10:19.588Z,13.23
2018-06-11T11:15:21.763Z,11.20
2018-06-11T11:20:23.923Z,12.60
2018-06-11T11:25:26.107Z,11.03
2018-06-11T11:30:28.270Z,11.37
2018-06-11T11:35:30.410Z,11.90
2018-06-11T11:40:32.574Z,11.23
2018-06-11T11:45:34.758Z,12.53
2018-06-11T11:50:36.899Z,12.23
2018-06-11T11:55:39.045Z,12.57
2018-06-11T12:00:41.229Z,12.57
2018-06-11T12:05:43.357Z,13.40
2018-06-11T12:10:45.925Z,13.67
2018-06-11T12:15:48.069Z,13.27
2018-06-11T12:20:50.249Z,14.17
2018-06-11T12:25:52.581Z,13.97
2018-06-11T12:30:54.713Z,14.80
2018-06-11T12:35:56.890Z,13.63
2018-06-11T12:40:59.039Z,15.07
2018-06-11T12:46:01.197Z,15.43
2018-06-11T12:51:03.365Z,13.60
2018-06-11T12:56:05.529Z,15.00
2018-06-11T13:01:07.661Z,15.67
2018-06-11T13:06:09.825Z,15.43
2018-06-11T13:11:11.982Z,15.77
2018-06-11T13:16:14.134Z,14.20
2018-06-11T13:21:16.262Z,14.10
2018-06-11T13:26:18.409Z,14.70
2018-06-11T13:31:20.546Z,15.73
2018-06-11T13:36:22.676Z,15.00
2018-06-11T13:41:24.847Z,15.90
2018-06-11T13:46:27.050Z,15.10
2018-06-11T13:51:29.201Z,15.73
2018-06-11T13:56:31.350Z,14.90
2018-06-11T14:01:33.528Z,15.30
2018-06-11T14:06:35.678Z,16.27
2018-06-11T14:11:37.841Z,16.00
2018-06-11T14:16:39.958Z,15.30
2018-06-11T14:21:42.106Z,13.63
2018-06-11T14:26:44.289Z,13.90
2018-06-11T14:31:46.445Z,12.90
2018-06-11T14:36:48.598Z,11.67
2018-06-11T14:41:50.762Z,11.20
2018-06-11T14:46:52.945Z,10.73
2018-06-11T14:51:55.122Z,11.20
2018-06-11T14:56:57.274Z,10.70
2018-06-11T15:01:59.425Z,12.30
2018-06-11T15:07:01.618Z,12.60
2018-06-11T15:12:03.794Z,13.90
2018-06-11T15:17:05.971Z,14.83
2018-06-11T15:22:08.151Z,16.03
2018-06-11T15:27:10.305Z,19.63
2018-06-11T15:32:12.502Z,15.00
2018-06-11T15:37:14.663Z,13.23
2018-06-11T15:42:16.869Z,14.80
2018-06-11T15:47:19.030Z,15.60
2018-06-11T15:52:21.214Z,15.40
2018-06-11T15:57:23.400Z,14.00
2018-06-11T16:02:25.577Z,14.67
2018-06-11T16:07:27.734Z,15.60
2018-06-11T16:12:29.909Z,17.70
2018-06-11T16:17:32.077Z,18.63
2018-06-11T16:22:34.259Z,19.77
2018-06-11T16:27:36.478Z,22.60
2018-06-11T16:32:38.667Z,20.20
2018-06-11T16:37:40.853Z,17.47
2018-06-11T16:42:43.042Z,21.37
2018-06-11T16:47:45.227Z,21.73
2018-06-11T16:52:47.406Z,24.00
2018-06-11T16:57:49.559Z,23.67
2018-06-11T17:02:52.769Z,24.40
2018-06-11T17:07:54.942Z,25.00
2018-06-11T17:12:57.122Z,26.43
2018-06-11T17:17:59.278Z,31.53
2018-06-11T17:23:01.497Z,32.60
2018-06-11T17:28:04.981Z,25.33
2018-06-11T17:33:07.145Z,23.83
2018-06-11T17:38:09.295Z,23.17
2018-06-11T17:43:12.910Z,23.33
2018-06-11T17:48:18.553Z,22.80
2018-06-11T17:53:20.685Z,21.20
2018-06-11T17:58:22.890Z,20.10
2018-06-11T18:03:25.178Z,24.77
2018-06-11T18:08:27.337Z,28.37
2018-06-11T18:13:29.487Z,28.43
2018-06-11T18:18:31.634Z,28.47
2018-06-11T18:23:33.765Z,26.33
2018-06-11T18:28:35.952Z,25.10
2018-06-11T18:33:38.113Z,25.90
2018-06-11T18:38:40.278Z,26.90
2018-06-11T18:43:42.457Z,28.80
2018-06-11T18:48:44.646Z,29.33
2018-06-11T18:53:46.829Z,30.07
2018-06-11T18:58:48.986Z,29.70
2018-06-11T19:03:51.358Z,30.43
2018-06-11T19:08:53.497Z,29.80
2018-06-11T19:13:55.693Z,31.73
2018-06-11T19:18:57.927Z,32.97
2018-06-11T19:24:00.345Z,30.63
2018-06-11T19:29:02.642Z,31.83
2018-06-11T19:34:05.102Z,32.37
2018-06-11T19:39:07.297Z,34.40
2018-06-11T19:44:09.635Z,31.93
2018-06-11T19:49:12.108Z,31.13
2018-06-11T19:54:14.387Z,31.33
2018-06-11T19:59:16.694Z,32.00
2018-06-11T20:04:18.918Z,31.97
2018-06-11T20:09:21.076Z,33.30
2018-06-11T20:14:23.365Z,33.00
2018-06-11T20:19:26.651Z,33.40
2018-06-11T20:24:29.230Z,30.27
2018-06-11T20:29:31.566Z,30.33
2018-06-11T20:34:33.725Z,29.70
2018-06-11T20:39:35.909Z,29.73
2018-06-11T20:44:38.082Z,28.90
2018-06-11T20:49:40.202Z,25.30
2018-06-11T20:54:42.332Z,24.80
2018-06-11T20:59:44.489Z,25.80
2018-06-11T21:04:46.648Z,22.67
2018-06-11T21:09:48.835Z,22.20
2018-06-11T21:14:50.992Z,23.30
2018-06-11T21:19:53.129Z,24.00
2018-06-11T21:24:55.262Z,26.53
2018-06-11T21:29:57.420Z,25.00
2018-06-11T21:34:59.582Z,26.93
2018-06-11T21:40:01.767Z,24.57
2018-06-11T21:45:04.149Z,23.13
2018-06-11T21:50:06.352Z,21.67
2018-06-11T21:55:08.542Z,21.43
2018-06-11T22:00:10.774Z,21.43
2018-06-11T22:05:12.978Z,20.77
2018-06-11T22:10:15.149Z,22.70
2018-06-11T22:15:17.314Z,23.20
2018-06-11T22:20:19.493Z,20.80
2018-06-11T22:25:21.690Z,20.73
2018-06-11T22:30:28.470Z,21.10
2018-06-11T22:35:31.921Z,20.33
2018-06-11T22:40:34.067Z,18.40
2018-06-11T22:45:36.234Z,18.07
2018-06-11T22:50:38.383Z,17.80
2018-06-11T22:55:40.531Z,15.87
2018-06-11T23:00:42.681Z,16.13
2018-06-11T23:05:44.846Z,15.37
2018-06-11T23:10:46.979Z,15.50
2018-06-11T23:15:49.174Z,15.33
2018-06-11T23:20:51.330Z,15.50
2018-06-11T23:25:53.477Z,16.80
2018-06-11T23:30:55.605Z,14.57
2018-06-11T23:35:57.766Z,14.80
2018-06-11T23:40:59.950Z,14.13
2018-06-11T23:46:02.139Z,14.70
2018-06-11T23:51:04.502Z,12.90
2018-06-11T23:56:06.671Z,14.60
